createdAt,value
2017-11-01T00:00:34.741Z,82.10
2017-11-01T00:03:03.077Z,81.51
2017-11-01T00:05:31.424Z,81.48
2017-11-01T00:07:59.756Z,81.71
2017-11-01T00:10:28.089Z,81.56
2017-11-01T00:12:56.456Z,80.87
2017-11-01T00:15:24.780Z,80.95
2017-11-01T00:17:53.099Z,81.02
2017-11-01T00:20:21.886Z,81.17
2017-11-01T00:22:50.224Z,81.63
2017-11-01T00:25:19.500Z,81.45
2017-11-01T00:27:47.826Z,80.60
2017-11-01T00:30:16.214Z,80.83
2017-11-01T00:32:44.544Z,81.07
2017-11-01T00:35:12.871Z,81.67
2017-11-01T00:37:43.119Z,81.15
2017-11-01T00:40:11.436Z,81.36
2017-11-01T00:42:39.786Z,81.60
2017-11-01T00:45:08.121Z,81.64
2017-11-01T00:47:37.233Z,81.74
2017-11-01T00:50:05.564Z,81.59
2017-11-01T00:52:33.879Z,81.48
2017-11-01T00:55:02.975Z,81.88
2017-11-01T00:57:31.296Z,81.84
2017-11-01T00:59:59.626Z,81.70
2017-11-01T01:02:29.856Z,81.93
2017-11-01T01:04:58.956Z,82.01
2017-11-01T01:07:28.213Z,82.00
2017-11-01T01:09:56.528Z,82.00
2017-11-01T01:12:25.845Z,82.28
2017-11-01T01:14:55.130Z,82.61
2017-11-01T01:17:27.853Z,82.49
2017-11-01T01:19:56.174Z,82.61
2017-11-01T01:22:24.983Z,82.73
2017-11-01T01:24:54.498Z,82.84
2017-11-01T01:27:23.797Z,82.93
2017-11-01T01:29:52.148Z,82.40
2017-11-01T01:32:20.543Z,82.50
2017-11-01T01:34:48.947Z,82.74
2017-11-01T01:37:18.228Z,83.07
2017-11-01T01:39:47.562Z,82.71
2017-11-01T01:42:16.012Z,82.61
2017-11-01T01:44:44.333Z,82.82
2017-11-01T01:47:12.673Z,83.34
2017-11-01T01:49:41.842Z,83.54
2017-11-01T01:52:10.189Z,82.84
2017-11-01T01:54:38.737Z,82.48
2017-11-01T01:57:07.815Z,82.71
2017-11-01T01:59:36.935Z,83.32
2017-11-01T02:02:05.399Z,83.92
2017-11-01T02:04:33.757Z,84.12
2017-11-01T02:07:02.082Z,84.23
2017-11-01T02:09:30.573Z,84.22
2017-11-01T02:11:58.927Z,84.24
2017-11-01T02:14:27.234Z,83.61
2017-11-01T02:16:55.555Z,84.23
2017-11-01T02:19:23.906Z,84.15
2017-11-01T02:21:52.267Z,84.61
2017-11-01T02:24:20.592Z,84.37
2017-11-01T02:26:48.956Z,84.65
2017-11-01T02:29:17.281Z,84.92
2017-11-01T02:31:46.386Z,85.14
2017-11-01T02:34:14.734Z,84.54
2017-11-01T02:36:43.098Z,84.13
2017-11-01T02:39:11.450Z,84.86
2017-11-01T02:41:39.838Z,85.33
2017-11-01T02:44:08.188Z,84.99
2017-11-01T02:46:37.282Z,85.43
2017-11-01T02:49:06.338Z,85.75
2017-11-01T02:51:34.700Z,85.62
2017-11-01T02:54:03.007Z,85.49
2017-11-01T02:56:31.354Z,85.12
2017-11-01T02:58:59.681Z,84.49
2017-11-01T03:01:28.799Z,84.33
2017-11-01T03:03:57.170Z,84.95
2017-11-01T03:06:26.251Z,84.96
2017-11-01T03:08:55.170Z,85.89
2017-11-01T03:11:23.490Z,86.08
2017-11-01T03:13:51.813Z,85.47
2017-11-01T03:16:20.919Z,85.49
2017-11-01T03:18:49.246Z,85.59
2017-11-01T03:21:17.586Z,85.66
2017-11-01T03:23:45.908Z,85.26
2017-11-01T03:26:14.312Z,85.23
2017-11-01T03:28:44.048Z,85.02
2017-11-01T03:31:12.368Z,85.67
2017-11-01T03:33:40.707Z,86.18
2017-11-01T03:36:09.826Z,85.85
2017-11-01T03:38:38.154Z,84.99
2017-11-01T03:41:06.478Z,85.28
2017-11-01T03:43:34.810Z,85.10
2017-11-01T03:46:03.146Z,84.89
2017-11-01T03:48:31.463Z,84.97
2017-11-01T03:51:00.690Z,85.43
2017-11-01T03:53:29.013Z,85.55
2017-11-01T03:55:57.362Z,85.57
2017-11-01T03:58:25.689Z,85.26
2017-11-01T04:00:54.053Z,85.51
2017-11-01T04:03:22.809Z,85.34
2017-11-01T04:05:51.127Z,85.39
2017-11-01T04:08:19.467Z,85.51
2017-11-01T04:10:47.790Z,85.65
2017-11-01T04:13:16.130Z,85.91
2017-11-01T04:15:44.435Z,85.77
2017-11-01T04:18:18.261Z,86.32
2017-11-01T04:20:49.383Z,86.41
2017-11-01T04:23:17.709Z,86.33
2017-11-01T04:25:46.847Z,85.65
2017-11-01T04:28:15.165Z,85.58
2017-11-01T04:30:43.521Z,86.00
2017-11-01T04:33:11.844Z,85.75
2017-11-01T04:35:40.169Z,85.68
2017-11-01T04:38:08.479Z,85.27
2017-11-01T04:40:36.788Z,85.62
2017-11-01T04:43:05.880Z,86.31
2017-11-01T04:45:34.266Z,85.98
2017-11-01T04:48:02.609Z,86.09
2017-11-01T04:50:30.932Z,86.06
2017-11-01T04:53:00.325Z,85.27
2017-11-01T04:55:28.664Z,86.43
2017-11-01T04:57:56.992Z,87.10
2017-11-01T05:00:34.559Z,86.34
2017-11-01T05:03:06.005Z,85.82
2017-11-01T05:05:34.353Z,86.46
2017-11-01T05:08:02.672Z,86.12
2017-11-01T05:10:34.814Z,86.44
2017-11-01T05:13:04.037Z,87.00
2017-11-01T05:15:32.375Z,87.00
2017-11-01T05:18:00.695Z,87.40
2017-11-01T05:20:29.042Z,87.54
2017-11-01T05:22:57.394Z,87.07
2017-11-01T05:25:36.209Z,86.37
2017-11-01T05:28:05.307Z,87.00
2017-11-01T05:30:34.395Z,87.49
2017-11-01T05:33:02.723Z,87.11
2017-11-01T05:35:31.057Z,86.81
2017-11-01T05:38:00.975Z,86.36
2017-11-01T05:40:29.305Z,86.57
2017-11-01T05:42:57.635Z,86.38
2017-11-01T05:45:25.963Z,86.48
2017-11-01T05:47:54.275Z,86.68
2017-11-01T05:50:23.379Z,86.67
2017-11-01T05:52:52.464Z,86.91
2017-11-01T05:55:21.069Z,87.34
2017-11-01T05:57:49.409Z,87.78
2017-11-01T06:00:17.728Z,88.15
2017-11-01T06:02:46.058Z,87.93
2017-11-01T06:05:14.366Z,87.50
2017-11-01T06:07:42.707Z,87.04
2017-11-01T06:10:11.024Z,87.11
2017-11-01T06:12:39.819Z,87.09
2017-11-01T06:15:08.140Z,87.62
2017-11-01T06:17:36.470Z,87.83
2017-11-01T06:20:04.804Z,86.78
2017-11-01T06:22:33.126Z,87.38
2017-11-01T06:25:01.468Z,87.29
2017-11-01T06:27:29.802Z,86.58
2017-11-01T06:29:58.182Z,86.91
2017-11-01T06:50:38.193Z,87.44
2017-11-01T06:53:08.011Z,87.14
2017-11-01T06:55:36.619Z,87.31
2017-11-01T07:22:00.642Z,87.78
2017-11-01T07:24:28.990Z,87.99
2017-11-01T07:26:59.389Z,88.24
2017-11-01T07:29:28.211Z,87.75
2017-11-01T07:31:57.280Z,87.71
2017-11-01T07:34:25.644Z,87.64
2017-11-01T07:36:53.944Z,87.57
2017-11-01T07:39:22.299Z,87.57
2017-11-01T07:41:50.643Z,87.28
2017-11-01T07:44:18.967Z,86.96
2017-11-01T07:46:47.278Z,86.91
2017-11-01T07:49:15.578Z,86.49
2017-11-01T08:34:02.666Z,82.54
2017-11-01T08:54:30.374Z,81.83
2017-11-01T09:14:57.784Z,80.19
2017-11-01T09:36:01.222Z,76.60
2017-11-01T09:38:30.018Z,77.05
2017-11-01T09:40:58.283Z,77.31
2017-11-01T09:43:26.593Z,77.91
2017-11-01T09:45:54.865Z,78.66
2017-11-01T09:48:25.056Z,78.19
2017-11-01T09:50:53.336Z,77.37
2017-11-01T09:53:21.602Z,77.39
2017-11-01T09:55:49.895Z,77.53
2017-11-01T09:58:18.174Z,77.09
2017-11-01T10:00:46.475Z,77.41
2017-11-01T10:03:14.805Z,77.43
2017-11-01T10:05:43.070Z,76.58
2017-11-01T10:08:11.487Z,77.53
2017-11-01T10:10:40.149Z,77.29
2017-11-01T10:13:08.433Z,76.46
2017-11-01T10:15:36.694Z,76.36
2017-11-01T10:18:05.027Z,76.30
2017-11-01T10:20:34.075Z,76.49
2017-11-01T10:23:02.359Z,75.40
2017-11-01T10:25:31.149Z,75.25
2017-11-01T10:27:59.433Z,74.60
2017-11-01T10:30:27.711Z,73.09
2017-11-01T10:32:56.007Z,73.61
2017-11-01T10:35:24.279Z,73.68
2017-11-01T10:37:52.567Z,74.13
2017-11-01T10:40:21.559Z,75.95
2017-11-01T10:42:49.814Z,75.40
2017-11-01T10:45:18.088Z,74.07
2017-11-01T10:47:46.769Z,70.58
2017-11-01T10:50:15.060Z,70.80
2017-11-01T10:52:43.341Z,71.96
2017-11-01T10:55:11.652Z,69.96
2017-11-01T10:57:40.681Z,70.27
2017-11-01T11:00:08.999Z,70.67
2017-11-01T11:02:37.255Z,70.21
2017-11-01T11:05:06.300Z,71.27
2017-11-01T11:07:34.584Z,71.51
2017-11-01T11:10:03.811Z,70.75
2017-11-01T11:12:32.119Z,69.71
2017-11-01T11:15:00.532Z,69.71
2017-11-01T11:17:29.586Z,69.42
2017-11-01T11:19:57.865Z,69.35
2017-11-01T11:22:26.145Z,69.02
2017-11-01T11:24:55.183Z,69.55
2017-11-01T11:27:23.455Z,68.81
2017-11-01T11:29:51.723Z,66.00
2017-11-01T11:32:20.017Z,66.44
2017-11-01T11:34:48.389Z,67.15
2017-11-01T11:37:16.712Z,67.69
2017-11-01T11:39:44.971Z,67.66
2017-11-01T11:42:13.295Z,64.70
2017-11-01T11:44:41.568Z,65.50
2017-11-01T11:47:10.451Z,64.36
2017-11-01T11:49:38.736Z,64.87
2017-11-01T11:52:07.012Z,65.38
2017-11-01T11:54:35.323Z,65.61
2017-11-01T11:57:03.588Z,65.00
2017-11-01T11:59:31.906Z,64.94
2017-11-01T12:02:00.182Z,65.24
2017-11-01T12:04:28.447Z,64.38
2017-11-01T12:06:57.472Z,65.33
2017-11-01T12:09:25.772Z,64.75
2017-11-01T12:11:54.037Z,64.62
2017-11-01T12:14:22.330Z,63.96
2017-11-01T12:16:50.607Z,64.33
2017-11-01T12:19:18.874Z,64.01
2017-11-01T12:21:47.154Z,64.00
2017-11-01T12:24:15.418Z,63.86
2017-11-01T12:26:43.696Z,63.67
2017-11-01T12:29:11.956Z,64.14
2017-11-01T12:31:40.246Z,63.88
2017-11-01T12:34:08.523Z,63.98
2017-11-01T12:36:36.790Z,64.42
2017-11-01T12:39:05.893Z,63.42
2017-11-01T12:41:34.264Z,63.21
2017-11-01T12:44:03.306Z,63.84
2017-11-01T12:46:31.910Z,63.42
2017-11-01T12:49:00.186Z,63.43
2017-11-01T12:51:28.445Z,63.66
2017-11-01T12:53:56.761Z,64.36
2017-11-01T12:56:25.787Z,64.65
2017-11-01T12:58:54.069Z,65.03
2017-11-01T13:01:22.361Z,64.28
2017-11-01T13:03:50.726Z,64.34
2017-11-01T13:06:19.840Z,63.63
2017-11-01T13:08:48.126Z,63.89
2017-11-01T13:11:16.428Z,63.62
2017-11-01T13:13:44.697Z,63.11
2017-11-01T13:16:12.964Z,62.78
2017-11-01T13:18:41.223Z,63.38
2017-11-01T13:21:09.526Z,62.99
2017-11-01T13:23:37.889Z,62.56
2017-11-01T13:26:06.183Z,61.90
2017-11-01T13:28:35.562Z,61.37
2017-11-01T13:31:03.821Z,62.19
2017-11-01T13:33:32.522Z,62.64
2017-11-01T13:36:00.808Z,62.42
2017-11-01T13:38:29.084Z,62.05
2017-11-01T13:40:57.350Z,62.15
2017-11-01T13:43:25.633Z,62.17
2017-11-01T13:45:53.888Z,62.30
2017-11-01T13:48:22.185Z,62.64
2017-11-01T13:50:50.448Z,62.13
2017-11-01T13:53:18.746Z,62.54
2017-11-01T13:55:47.026Z,62.46
2017-11-01T13:58:15.310Z,62.22
2017-11-01T14:00:43.572Z,62.08
2017-11-01T14:03:11.870Z,62.83
2017-11-01T14:05:40.144Z,62.61
2017-11-01T14:08:08.426Z,62.74
2017-11-01T14:10:37.614Z,62.73
2017-11-01T14:13:05.875Z,62.44
2017-11-01T14:15:34.242Z,62.51
2017-11-01T14:18:02.600Z,62.15
2017-11-01T14:20:32.046Z,62.71
2017-11-01T14:23:00.351Z,62.58
2017-11-01T14:25:28.622Z,61.86
2017-11-01T14:27:56.911Z,62.26
2017-11-01T14:30:25.172Z,62.50
2017-11-01T14:32:53.493Z,62.38
2017-11-01T14:35:22.597Z,62.11
2017-11-01T14:37:50.894Z,63.27
2017-11-01T14:40:19.166Z,62.64
2017-11-01T14:42:47.498Z,63.23
2017-11-01T14:45:15.774Z,64.74
2017-11-01T14:47:44.359Z,64.85
2017-11-01T14:50:12.646Z,65.35
2017-11-01T14:52:40.921Z,64.64
2017-11-01T14:55:09.202Z,64.47
2017-11-01T14:57:38.250Z,64.26
2017-11-01T15:00:06.532Z,64.71
2017-11-01T15:02:34.839Z,65.62
2017-11-01T15:05:03.122Z,66.82
2017-11-01T15:07:31.660Z,68.01
2017-11-01T15:10:01.799Z,68.78
2017-11-01T15:12:30.110Z,69.03
2017-11-01T15:14:58.434Z,69.33
2017-11-01T15:17:26.730Z,69.92
2017-11-01T15:19:55.458Z,70.44
2017-11-01T15:22:23.758Z,70.24
2017-11-01T15:24:52.059Z,70.64
2017-11-01T15:27:20.403Z,70.96
2017-11-01T15:29:50.193Z,70.88
2017-11-01T15:32:18.552Z,71.65
2017-11-01T15:34:46.959Z,72.21
2017-11-01T15:37:15.495Z,72.33
2017-11-01T15:39:43.834Z,72.78
2017-11-01T15:42:12.181Z,73.13
2017-11-01T15:44:40.497Z,73.15
2017-11-01T15:47:09.870Z,73.19
2017-11-01T15:49:38.216Z,73.59
2017-11-01T15:52:06.514Z,73.55
2017-11-01T15:54:34.877Z,74.08
2017-11-01T15:57:03.212Z,74.30
2017-11-01T15:59:31.885Z,74.84
2017-11-01T16:02:00.172Z,75.18
2017-11-01T16:04:28.553Z,75.08
2017-11-01T16:06:57.032Z,74.96
2017-11-01T16:09:25.519Z,75.01
2017-11-01T16:11:53.805Z,75.04
2017-11-01T16:14:22.105Z,75.11
2017-11-01T16:16:50.437Z,75.61
2017-11-01T16:19:18.725Z,75.17
2017-11-01T16:21:47.004Z,75.33
2017-11-01T16:24:15.298Z,75.87
2017-11-01T16:26:43.579Z,76.05
2017-11-01T16:29:11.864Z,76.40
2017-11-01T16:31:40.915Z,76.64
2017-11-01T16:34:09.218Z,76.86
2017-11-01T16:36:37.508Z,76.86
2017-11-01T16:39:05.778Z,76.74
2017-11-01T16:41:34.052Z,77.16
2017-11-01T16:44:02.339Z,77.15
2017-11-01T16:46:30.640Z,77.28
2017-11-01T16:48:58.909Z,77.53
2017-11-01T16:51:28.049Z,77.30
2017-11-01T16:53:56.323Z,77.80
2017-11-01T16:56:24.631Z,78.04
2017-11-01T16:58:52.938Z,77.82
2017-11-01T17:01:21.211Z,78.18
2017-11-01T17:03:49.501Z,78.35
2017-11-01T17:06:18.562Z,78.39
2017-11-01T17:08:46.852Z,78.37
2017-11-01T17:11:15.142Z,78.48
2017-11-01T17:13:43.486Z,78.44
2017-11-01T17:16:12.300Z,78.83
2017-11-01T17:18:40.627Z,79.89
2017-11-01T17:21:08.981Z,79.44
2017-11-01T17:23:37.724Z,79.49
2017-11-01T17:26:06.040Z,79.92
2017-11-01T17:28:34.326Z,79.76
2017-11-01T17:31:03.369Z,79.62
2017-11-01T17:33:31.691Z,80.37
2017-11-01T17:35:59.952Z,80.85
2017-11-01T17:38:28.419Z,80.30
2017-11-01T17:40:56.707Z,80.12
2017-11-01T17:43:24.973Z,80.21
2017-11-01T17:45:53.286Z,80.47
2017-11-01T17:48:21.567Z,81.27
2017-11-01T17:50:50.604Z,80.96
2017-11-01T17:53:18.885Z,80.69
2017-11-01T17:55:47.237Z,81.33
2017-11-01T17:58:15.915Z,80.95
2017-11-01T18:00:44.218Z,81.34
2017-11-01T18:03:12.492Z,81.85
2017-11-01T18:05:41.424Z,81.09
2017-11-01T18:08:09.708Z,81.97
2017-11-01T18:10:38.735Z,82.39
2017-11-01T18:13:07.056Z,82.44
2017-11-01T18:15:35.323Z,82.64
2017-11-01T18:18:03.622Z,82.37
2017-11-01T18:20:32.311Z,81.93
2017-11-01T18:23:00.591Z,82.66
2017-11-01T18:25:28.931Z,82.47
2017-11-01T18:27:57.194Z,82.63
2017-11-01T18:30:29.731Z,83.09
2017-11-01T18:32:58.036Z,82.56
2017-11-01T18:35:26.315Z,82.35
2017-11-01T18:37:55.311Z,83.03
2017-11-01T18:40:24.036Z,82.97
2017-11-01T18:42:52.325Z,83.24
2017-11-01T18:45:21.044Z,83.12
2017-11-01T18:47:49.338Z,83.58
2017-11-01T18:50:17.601Z,83.89
2017-11-01T18:52:45.885Z,83.13
2017-11-01T18:55:14.247Z,83.76
2017-11-01T18:57:43.207Z,83.40
2017-11-01T19:00:11.533Z,83.08
2017-11-01T19:02:40.471Z,83.47
2017-11-01T19:05:09.500Z,83.60
2017-11-01T19:07:37.795Z,83.95
2017-11-01T19:10:06.086Z,84.72
2017-11-01T19:12:34.848Z,84.53
2017-11-01T19:15:03.213Z,83.83
2017-11-01T19:17:31.524Z,83.39
2017-11-01T19:20:00.282Z,83.66
2017-11-01T19:22:30.305Z,84.34
2017-11-01T19:24:58.737Z,84.06
2017-11-01T19:27:27.042Z,84.22
2017-11-01T19:29:55.297Z,84.13
2017-11-01T19:32:27.451Z,83.98
2017-11-01T19:34:56.634Z,83.97
2017-11-01T19:37:25.782Z,84.68
2017-11-01T19:39:54.194Z,85.08
2017-11-01T19:42:22.460Z,84.54
2017-11-01T19:44:50.759Z,84.65
2017-11-01T19:47:19.113Z,84.79
2017-11-01T19:49:51.187Z,84.23
2017-11-01T19:52:29.078Z,84.71
2017-11-01T19:54:57.510Z,85.35
2017-11-01T19:57:25.913Z,85.36
2017-11-01T19:59:54.656Z,85.85
2017-11-01T20:02:22.987Z,86.13
2017-11-01T20:04:52.686Z,85.57
2017-11-01T20:07:21.078Z,85.71
2017-11-01T20:09:50.380Z,86.41
2017-11-01T20:12:23.337Z,86.93
2017-11-01T20:14:52.418Z,87.02
2017-11-01T20:17:21.497Z,86.72
2017-11-01T20:19:50.720Z,86.58
2017-11-01T20:22:19.205Z,86.36
2017-11-01T20:24:48.010Z,85.83
2017-11-01T20:27:17.570Z,86.19
2017-11-01T20:29:46.017Z,86.28
2017-11-01T20:32:14.333Z,86.34
2017-11-01T20:34:42.687Z,85.64
2017-11-01T20:37:12.009Z,86.28
2017-11-01T20:39:40.278Z,86.42
2017-11-01T20:42:08.588Z,86.90
2017-11-01T20:44:36.873Z,86.93
2017-11-01T20:47:05.163Z,86.19
2017-11-01T20:49:34.056Z,86.69
2017-11-01T20:52:03.969Z,86.82
2017-11-01T20:54:33.053Z,86.41
2017-11-01T20:57:01.722Z,86.46
2017-11-01T20:59:30.021Z,87.03
2017-11-01T21:01:58.284Z,87.28
2017-11-01T21:04:26.560Z,86.96
2017-11-01T21:06:55.264Z,86.58
2017-11-01T21:09:23.604Z,86.37
2017-11-01T21:11:51.896Z,86.14
2017-11-01T21:14:20.229Z,86.76
2017-11-01T21:16:50.130Z,86.99
2017-11-01T21:19:18.403Z,86.73
2017-11-01T21:21:46.690Z,86.42
2017-11-01T21:24:15.431Z,86.07
2017-11-01T21:26:43.727Z,85.78
2017-11-01T21:29:12.015Z,86.67
2017-11-01T21:31:40.305Z,87.31
2017-11-01T21:34:08.596Z,87.00
2017-11-01T21:36:36.873Z,86.70
2017-11-01T21:39:05.723Z,87.08
2017-11-01T21:41:34.029Z,87.57
2017-11-01T21:44:02.310Z,86.85
2017-11-01T21:46:30.607Z,86.39
2017-11-01T21:48:59.658Z,86.87
2017-11-01T21:51:27.934Z,87.39
2017-11-01T21:53:56.387Z,87.36
2017-11-01T21:56:24.658Z,87.37
2017-11-01T21:58:52.933Z,87.14
2017-11-01T22:01:21.192Z,86.77
2017-11-01T22:03:50.235Z,87.48
2017-11-01T22:06:18.537Z,88.00
2017-11-01T22:08:46.870Z,88.09
2017-11-01T22:11:15.283Z,87.50
2017-11-01T22:13:44.085Z,87.59
2017-11-01T22:16:12.398Z,87.16
2017-11-01T22:18:41.426Z,87.13
2017-11-01T22:21:10.132Z,87.61
2017-11-01T22:23:38.410Z,87.59
2017-11-01T22:26:06.671Z,87.53
2017-11-01T22:28:34.958Z,87.72
2017-11-01T22:31:03.245Z,87.70
2017-11-01T22:33:31.534Z,87.72
2017-11-01T22:35:59.805Z,88.15
2017-11-01T22:38:28.063Z,88.28
2017-11-01T22:40:56.374Z,88.22
2017-11-01T22:43:24.645Z,87.99
2017-11-01T22:45:52.918Z,87.74
2017-11-01T22:48:21.206Z,87.76
2017-11-01T22:50:49.479Z,87.31
2017-11-01T22:53:17.752Z,87.40
2017-11-01T22:55:46.030Z,87.75
2017-11-01T22:58:14.823Z,88.19
2017-11-01T23:00:43.593Z,88.09
2017-11-01T23:03:11.889Z,88.03
2017-11-01T23:05:40.993Z,87.59
2017-11-01T23:08:09.278Z,87.36
2017-11-01T23:10:37.523Z,87.98
2017-11-01T23:13:05.802Z,88.40
2017-11-01T23:15:34.855Z,88.25
2017-11-01T23:18:03.130Z,88.31
2017-11-01T23:20:32.157Z,88.55
2017-11-01T23:23:00.447Z,88.49
2017-11-01T23:25:28.718Z,88.40
2017-11-01T23:27:56.972Z,88.42
2017-11-01T23:30:25.245Z,88.28
2017-11-01T23:32:53.495Z,88.66
2017-11-01T23:35:21.789Z,88.20
2017-11-01T23:37:50.912Z,88.21
2017-11-01T23:40:19.172Z,88.41
2017-11-01T23:42:47.467Z,88.09
2017-11-01T23:45:15.763Z,87.73
2017-11-01T23:47:44.096Z,88.33
2017-11-01T23:50:12.408Z,88.70
2017-11-01T23:52:40.706Z,88.23
2017-11-01T23:55:09.009Z,88.43
2017-11-01T23:57:37.282Z,88.63
